Time,TemperatureF,DewpointF,PressureIn,WindDirection,WindDirectionDegrees,WindSpeedMPH,WindSpeedGustMPH,Humidity,HourlyPrecipIn,Conditions,Clouds,dailyrainin,SolarRadiationWatts/m^2,SoftwareType,DateUTC
2013-03-05 00:22:00,-2.0,-8.0,-100.00,East,82,1.0,4.0,75,0.00,,,0.20,0.000000,,2013-03-05 07:22:00,
2013-03-05 00:31:00,-2.0,-8.0,-100.00,East,82,1.0,4.0,75,0.00,,,0.20,0.000000,,2013-03-05 07:31:00,
2013-03-05 00:41:00,-2.0,-8.0,-100.00,East,82,1.0,4.0,75,0.00,,,0.20,0.000000,,2013-03-05 07:41:00,
2013-03-05 00:51:00,-2.0,-8.0,-100.00,East,82,1.0,4.0,75,0.00,,,0.20,0.000000,,2013-03-05 07:51:00,
2013-03-05 01:21:00,-2.0,-8.0,-100.00,East,81,2.0,4.0,76,0.00,,,-99.99,0.000000,,2013-03-05 08:21:00,
2013-03-05 01:31:00,-2.0,-8.0,-100.00,East,81,2.0,4.0,76,0.00,,,-99.99,0.000000,,2013-03-05 08:31:00,
2013-03-05 01:41:00,-2.0,-8.0,-100.00,East,81,2.0,4.0,76,0.00,,,-99.99,0.000000,,2013-03-05 08:41:00,
2013-03-05 01:52:00,-2.0,-8.0,-100.00,East,81,2.0,4.0,76,0.00,,,-99.99,0.000000,,2013-03-05 08:52:00,
2013-03-05 02:11:00,-2.0,-8.0,-100.00,ESE,117,2.0,5.0,74,0.00,,,0.20,0.000000,,2013-03-05 09:11:00,
2013-03-05 02:21:00,-2.0,-8.0,-100.00,ESE,117,2.0,5.0,74,0.00,,,0.20,0.000000,,2013-03-05 09:21:00,
2013-03-05 02:31:00,-2.0,-8.0,-100.00,ESE,117,2.0,5.0,74,0.00,,,0.20,0.000000,,2013-03-05 09:31:00,
2013-03-05 02:42:00,-2.0,-8.0,-100.00,ESE,117,2.0,5.0,74,0.00,,,0.20,0.000000,,2013-03-05 09:42:00,
2013-03-05 02:52:00,-2.0,-8.0,-100.00,ESE,117,2.0,5.0,74,0.00,,,0.20,0.000000,,2013-03-05 09:52:00,
2013-03-05 03:21:00,-2.0,-9.0,-100.00,North,358,1.0,5.0,72,0.00,,,0.20,0.000000,,2013-03-05 10:21:00,
2013-03-05 03:32:00,-2.0,-9.0,-100.00,North,358,1.0,5.0,72,0.00,,,0.20,0.000000,,2013-03-05 10:32:00,
2013-03-05 03:42:00,-2.0,-9.0,-100.00,North,358,1.0,5.0,72,0.00,,,0.20,0.000000,,2013-03-05 10:42:00,
2013-03-05 03:52:00,-2.0,-9.0,-100.00,North,358,1.0,5.0,72,0.00,,,0.20,0.000000,,2013-03-05 10:52:00,
2013-03-05 04:22:00,-2.0,-8.0,-100.00,ENE,68,1.0,5.0,74,0.00,,,0.20,0.000000,,2013-03-05 11:22:00,
2013-03-05 04:32:00,-2.0,-8.0,-100.00,ENE,68,1.0,5.0,74,0.00,,,0.20,0.000000,,2013-03-05 11:32:00,
2013-03-05 04:42:00,-2.0,-8.0,-100.00,ENE,68,1.0,5.0,74,0.00,,,0.20,0.000000,,2013-03-05 11:42:00,
2013-03-05 04:52:00,-2.0,-8.0,-100.00,ENE,68,1.0,5.0,74,0.00,,,0.20,0.000000,,2013-03-05 11:52:00,
2013-03-05 05:22:00,-2.0,-9.0,-100.00,SE,135,1.0,4.0,73,0.00,,,0.20,0.000000,,2013-03-05 12:22:00,
2013-03-05 05:32:00,-2.0,-9.0,-100.00,SE,135,1.0,4.0,73,0.00,,,0.20,0.000000,,2013-03-05 12:32:00,
2013-03-05 05:42:00,-2.0,-9.0,-100.00,SE,135,1.0,4.0,73,0.00,,,0.20,0.000000,,2013-03-05 12:42:00,
2013-03-05 05:52:00,-2.0,-9.0,-100.00,SE,135,1.0,4.0,73,0.00,,,0.20,0.000000,,2013-03-05 12:52:00,
2013-03-05 06:21:00,-3.0,-9.0,-100.00,ESE,114,1.0,5.0,75,0.00,,,0.20,0.000000,,2013-03-05 13:21:00,
2013-03-05 06:32:00,-3.0,-9.0,-100.00,ESE,114,1.0,5.0,75,0.00,,,0.20,0.000000,,2013-03-05 13:32:00,
2013-03-05 06:42:00,-3.0,-9.0,-100.00,ESE,114,1.0,5.0,75,0.00,,,0.20,0.000000,,2013-03-05 13:42:00,
2013-03-05 06:52:00,-3.0,-9.0,-100.00,ESE,114,1.0,5.0,75,0.00,,,0.20,0.000000,,2013-03-05 13:52:00,
2013-03-05 07:22:00,0.0,-8.0,-100.00,East,87,1.0,5.0,69,0.00,,,0.20,4.000000,,2013-03-05 14:22:00,
2013-03-05 07:32:00,0.0,-8.0,-100.00,East,87,1.0,5.0,69,0.00,,,0.20,4.000000,,2013-03-05 14:32:00,
2013-03-05 07:42:00,0.0,-8.0,-100.00,East,87,1.0,5.0,69,0.00,,,0.20,4.000000,,2013-03-05 14:42:00,
2013-03-05 07:52:00,0.0,-8.0,-100.00,East,87,1.0,5.0,69,0.00,,,0.20,4.000000,,2013-03-05 14:52:00,
2013-03-05 08:21:00,4.0,-5.0,-100.00,NE,46,2.0,5.0,66,0.00,,,0.20,38.000000,,2013-03-05 15:21:00,
2013-03-05 08:32:00,4.0,-5.0,-100.00,NE,46,2.0,5.0,66,0.00,,,0.20,38.000000,,2013-03-05 15:32:00,
2013-03-05 08:42:00,4.0,-5.0,-100.00,NE,46,2.0,5.0,66,0.00,,,0.20,38.000000,,2013-03-05 15:42:00,
2013-03-05 08:52:00,4.0,-5.0,-100.00,NE,46,2.0,5.0,66,0.00,,,0.20,38.000000,,2013-03-05 15:52:00,
2013-03-05 09:21:00,17.0,1.0,-100.00,North,10,2.0,8.0,48,0.00,,,0.20,326.000000,,2013-03-05 16:21:00,
2013-03-05 09:32:00,17.0,1.0,-100.00,North,10,2.0,8.0,48,0.00,,,0.20,326.000000,,2013-03-05 16:32:00,
2013-03-05 09:42:00,17.0,1.0,-100.00,North,10,2.0,8.0,48,0.00,,,0.20,326.000000,,2013-03-05 16:42:00,
2013-03-05 09:51:00,17.0,1.0,-100.00,North,10,2.0,8.0,48,0.00,,,0.20,326.000000,,2013-03-05 16:51:00,
2013-03-05 10:21:00,34.0,-1.0,-100.00,West,277,2.0,6.0,22,0.01,,,0.21,509.000000,,2013-03-05 17:21:00,
2013-03-05 10:32:00,34.0,-1.0,-100.00,West,277,2.0,6.0,22,0.01,,,0.21,509.000000,,2013-03-05 17:32:00,
2013-03-05 10:42:00,34.0,-1.0,-100.00,West,277,2.0,6.0,22,0.01,,,0.21,509.000000,,2013-03-05 17:42:00,
2013-03-05 10:52:00,34.0,-1.0,-100.00,West,277,2.0,6.0,22,0.01,,,0.21,509.000000,,2013-03-05 17:52:00,
2013-03-05 11:22:00,36.0,0.0,-100.00,WNW,285,2.0,9.0,21,0.01,,,0.18,662.000000,,2013-03-05 18:22:00,
2013-03-05 11:32:00,36.0,0.0,-100.00,WNW,285,2.0,9.0,21,0.01,,,0.18,662.000000,,2013-03-05 18:32:00,
2013-03-05 11:42:00,36.0,0.0,-100.00,WNW,285,2.0,9.0,21,0.01,,,0.18,662.000000,,2013-03-05 18:42:00,
2013-03-05 11:52:00,36.0,0.0,-100.00,WNW,285,2.0,9.0,21,0.01,,,0.18,662.000000,,2013-03-05 18:52:00,
2013-03-05 12:21:00,32.0,4.0,-100.00,SSW,200,5.0,12.0,30,0.00,,,0.03,773.000000,,2013-03-05 19:21:00,
2013-03-05 12:32:00,32.0,4.0,-100.00,SSW,200,5.0,12.0,30,0.00,,,0.03,773.000000,,2013-03-05 19:32:00,
2013-03-05 12:42:00,32.0,4.0,-100.00,SSW,200,5.0,12.0,30,0.00,,,0.03,773.000000,,2013-03-05 19:42:00,
2013-03-05 12:51:00,32.0,4.0,-100.00,SSW,200,5.0,12.0,30,0.00,,,0.03,773.000000,,2013-03-05 19:51:00,
2013-03-05 13:22:00,40.0,-10.0,-100.00,NW,319,8.0,14.0,11,0.00,,,0.02,802.000000,,2013-03-05 20:22:00,
2013-03-05 13:32:00,40.0,-10.0,-100.00,NW,319,8.0,14.0,11,0.00,,,0.02,802.000000,,2013-03-05 20:32:00,
2013-03-05 13:42:00,40.0,-10.0,-100.00,NW,319,8.0,14.0,11,0.00,,,0.02,802.000000,,2013-03-05 20:42:00,
2013-03-05 13:52:00,40.0,-10.0,-100.00,NW,319,8.0,14.0,11,0.00,,,0.02,802.000000,,2013-03-05 20:52:00,
2013-03-05 14:21:00,42.0,-7.0,-100.00,WNW,289,8.0,13.0,12,0.00,,,0.02,765.000000,,2013-03-05 21:21:00,
2013-03-05 14:32:00,42.0,-7.0,-100.00,WNW,289,8.0,13.0,12,0.00,,,0.02,765.000000,,2013-03-05 21:32:00,
2013-03-05 14:42:00,42.0,-7.0,-100.00,WNW,289,8.0,13.0,12,0.00,,,0.02,765.000000,,2013-03-05 21:42:00,
2013-03-05 14:52:00,42.0,-7.0,-100.00,WNW,289,8.0,13.0,12,0.00,,,0.02,765.000000,,2013-03-05 21:52:00,
2013-03-05 15:22:00,42.0,-11.0,-100.00,NW,304,7.0,14.0,10,0.00,,,0.02,666.000000,,2013-03-05 22:22:00,
2013-03-05 15:32:00,42.0,-11.0,-100.00,NW,304,7.0,14.0,10,0.00,,,0.02,666.000000,,2013-03-05 22:32:00,
2013-03-05 15:42:00,42.0,-11.0,-100.00,NW,304,7.0,14.0,10,0.00,,,0.02,666.000000,,2013-03-05 22:42:00,
2013-03-05 15:52:00,42.0,-11.0,-100.00,NW,304,7.0,14.0,10,0.00,,,0.02,666.000000,,2013-03-05 22:52:00,
2013-03-05 16:21:00,41.0,-13.0,-100.00,NW,319,8.0,13.0,9,0.00,,,0.02,510.000000,,2013-03-05 23:21:00,
2013-03-05 16:32:00,41.0,-13.0,-100.00,NW,319,8.0,13.0,9,0.00,,,0.02,510.000000,,2013-03-05 23:32:00,
2013-03-05 16:42:00,41.0,-13.0,-100.00,NW,319,8.0,13.0,9,0.00,,,0.02,510.000000,,2013-03-05 23:42:00,
2013-03-05 16:52:00,41.0,-13.0,-100.00,NW,319,8.0,13.0,9,0.00,,,0.02,510.000000,,2013-03-05 23:52:00,
2013-03-05 17:21:00,41.0,-8.0,-100.00,WNW,298,5.0,13.0,12,0.00,,,0.02,314.000000,,2013-03-06 00:21:00,
2013-03-05 17:32:00,41.0,-8.0,-100.00,WNW,298,5.0,13.0,12,0.00,,,0.02,314.000000,,2013-03-06 00:32:00,
2013-03-05 17:42:00,41.0,-8.0,-100.00,WNW,298,5.0,13.0,12,0.00,,,0.02,314.000000,,2013-03-06 00:42:00,
2013-03-05 17:51:00,41.0,-8.0,-100.00,WNW,298,5.0,13.0,12,0.00,,,0.02,314.000000,,2013-03-06 00:51:00,
2013-03-05 18:21:00,31.0,-2.0,-100.00,ESE,119,3.0,8.0,24,0.00,,,0.02,95.000000,,2013-03-06 01:21:00,
2013-03-05 18:32:00,31.0,-2.0,-100.00,ESE,119,3.0,8.0,24,0.00,,,0.02,95.000000,,2013-03-06 01:32:00,
2013-03-05 18:42:00,31.0,-2.0,-100.00,ESE,119,3.0,8.0,24,0.00,,,0.02,95.000000,,2013-03-06 01:42:00,
2013-03-05 18:51:00,31.0,-2.0,-100.00,ESE,119,3.0,8.0,24,0.00,,,0.02,95.000000,,2013-03-06 01:51:00,
2013-03-05 19:22:00,25.0,4.0,-100.00,ENE,61,5.0,8.0,39,0.00,,,0.02,1.000000,,2013-03-06 02:22:00,
2013-03-05 19:32:00,25.0,4.0,-100.00,ENE,61,5.0,8.0,39,0.00,,,0.02,1.000000,,2013-03-06 02:32:00,
2013-03-05 19:42:00,25.0,4.0,-100.00,ENE,61,5.0,8.0,39,0.00,,,0.02,1.000000,,2013-03-06 02:42:00,
2013-03-05 19:52:00,25.0,4.0,-100.00,ENE,61,5.0,8.0,39,0.00,,,0.02,1.000000,,2013-03-06 02:52:00,
2013-03-05 20:22:00,21.0,3.0,-100.00,ESE,109,3.0,6.0,44,0.00,,,0.02,0.000000,,2013-03-06 03:22:00,
2013-03-05 20:32:00,21.0,3.0,-100.00,ESE,109,3.0,6.0,44,0.00,,,0.02,0.000000,,2013-03-06 03:32:00,
2013-03-05 20:42:00,21.0,3.0,-100.00,ESE,109,3.0,6.0,44,0.00,,,0.02,0.000000,,2013-03-06 03:42:00,
2013-03-05 20:52:00,21.0,3.0,-100.00,ESE,109,3.0,6.0,44,0.00,,,0.02,0.000000,,2013-03-06 03:52:00,
2013-03-05 21:21:00,18.0,3.0,-100.00,SE,131,3.0,4.0,50,0.00,,,0.02,0.000000,,2013-03-06 04:21:00,
2013-03-05 21:32:00,18.0,3.0,-100.00,SE,131,3.0,4.0,50,0.00,,,0.02,0.000000,,2013-03-06 04:32:00,
2013-03-05 21:42:00,18.0,3.0,-100.00,SE,131,3.0,4.0,50,0.00,,,0.02,0.000000,,2013-03-06 04:42:00,
2013-03-05 21:52:00,18.0,3.0,-100.00,SE,131,3.0,4.0,50,0.00,,,0.02,0.000000,,2013-03-06 04:52:00,
2013-03-05 22:22:00,17.0,-1.0,-100.00,ESE,115,2.0,4.0,44,0.00,,,0.02,0.000000,,2013-03-06 05:22:00,
2013-03-05 22:32:00,17.0,-1.0,-100.00,ESE,115,2.0,4.0,44,0.00,,,0.02,0.000000,,2013-03-06 05:32:00,
2013-03-05 22:42:00,17.0,-1.0,-100.00,ESE,115,2.0,4.0,44,0.00,,,0.02,0.000000,,2013-03-06 05:42:00,
2013-03-05 22:52:00,17.0,-1.0,-100.00,ESE,115,2.0,4.0,44,0.00,,,0.02,0.000000,,2013-03-06 05:52:00,
2013-03-05 23:22:00,16.0,0.0,-100.00,East,92,1.0,5.0,48,0.00,,,0.02,0.000000,,2013-03-06 06:22:00,
2013-03-05 23:32:00,16.0,0.0,-100.00,East,92,1.0,5.0,48,0.00,,,0.02,0.000000,,2013-03-06 06:32:00,
2013-03-05 23:42:00,16.0,0.0,-100.00,East,92,1.0,5.0,48,0.00,,,0.02,0.000000,,2013-03-06 06:42:00,
2013-03-05 23:52:00,16.0,0.0,-100.00,East,92,1.0,5.0,48,0.00,,,0.02,0.000000,,2013-03-06 06:52:00,